Time;durP1;ratioP1;P1;durP2;ratioP2;P2;SDS_P1;SDS_P2;PMS_P1;PMS_P2;Temp;Humidity;BMP_temperature;BMP_pressure;BME280_temperature;BME280_humidity;BME280_pressure;Samples;Min_cycle;Max_cycle;Signal;HPM_P1;HPM_P2
2022/09/19 00:01:11;;;;;;;0.97;0.87;;;6.40;99.90;;;7.74;78.94;97555.56;5070475;28;20472;-78
2022/09/19 00:03:40;;;;;;;0.50;0.50;;;6.40;99.90;;;8.36;78.26;97635.97;5051835;28;21078;-78
2022/09/19 00:06:08;;;;;;;0.70;0.70;;;6.30;99.90;;;8.25;79.23;97648.22;5069222;28;20506;-77
2022/09/19 00:08:37;;;;;;;0.70;0.70;;;6.40;99.90;;;8.28;78.90;97637.03;5070854;28;20452;-78
2022/09/19 00:11:07;;;;;;;0.90;0.77;;;6.40;99.90;;;8.31;78.96;97657.31;5065101;28;20546;-79
2022/09/19 00:13:44;;;;;;;3.10;0.90;;;6.30;99.90;;;8.21;80.45;97658.56;5069070;28;20541;-78
2022/09/19 00:16:11;;;;;;;0.90;0.80;;;6.40;99.90;;;8.42;80.45;97648.59;5068181;28;20479;-78
2022/09/19 00:18:39;;;;;;;2.70;1.23;;;6.50;99.90;;;8.40;79.54;97615.66;5069154;28;21036;-77
2022/09/19 00:21:06;;;;;;;0.80;0.80;;;6.60;99.90;;;8.39;79.95;97638.25;5071194;28;20497;-78
2022/09/19 00:26:20;;;;;;;0.80;0.80;;;6.70;99.90;;;8.74;79.30;97646.06;5049687;28;20557;-78
2022/09/19 00:28:48;;;;;;;0.80;0.70;;;6.80;99.90;;;8.79;79.77;97656.19;5075830;28;20456;-79
2022/09/19 00:31:18;;;;;;;1.30;0.70;;;6.90;99.90;;;8.83;79.78;97660.13;5069905;28;20458;-78
2022/09/19 00:33:47;;;;;;;1.27;0.70;;;6.90;99.90;;;8.78;79.50;97663.44;5070451;28;20445;-78
2022/09/19 00:36:15;;;;;;;0.70;0.70;;;6.90;99.90;;;8.72;79.86;97642.75;5102504;28;20580;-77
2022/09/19 00:38:44;;;;;;;0.90;0.90;;;7.00;99.90;;;8.78;79.53;97649.97;5071079;28;20976;-77
2022/09/19 00:41:15;;;;;;;0.57;0.57;;;7.00;99.90;;;8.60;79.41;97629.09;5067860;28;20523;-79
2022/09/19 00:43:50;;;;;;;0.67;0.60;;;7.00;99.90;;;8.37;79.98;97651.09;5070297;28;20461;-76
2022/09/19 00:46:20;;;;;;;1.23;0.60;;;7.00;99.90;;;8.28;80.50;97652.38;5074255;28;20484;-77
2022/09/19 00:48:51;;;;;;;0.50;0.50;;;6.90;99.90;;;8.39;80.10;97632.84;5065492;28;20454;-77
2022/09/19 00:51:28;;;;;;;1.37;0.60;;;6.90;99.90;;;8.71;79.68;97635.69;5070818;28;20439;-78
2022/09/19 00:53:55;;;;;;;0.70;0.70;;;7.00;99.90;;;8.85;78.62;97641.88;5071407;28;20444;-77
2022/09/19 00:56:23;;;;;;;0.97;0.50;;;7.00;99.90;;;8.59;78.69;97637.41;5064273;28;20516;-77
2022/09/19 00:58:53;;;;;;;0.60;0.60;;;7.00;99.90;;;8.78;79.26;97633.81;5102093;28;20819;-76
2022/09/19 01:01:21;;;;;;;1.23;0.70;;;7.00;99.90;;;8.53;78.75;97643.63;5071135;28;21137;-78
2022/09/19 01:03:48;;;;;;;0.60;0.53;;;7.10;99.90;;;8.27;79.21;97637.25;5088041;28;21322;-78
2022/09/19 01:06:40;;;;;;;1.63;0.70;;;7.00;99.90;;;8.41;79.02;97646.94;5064390;28;20457;-79
2022/09/19 01:09:36;;;;;;;0.80;0.70;;;6.90;99.90;;;8.20;80.20;97650.72;5067870;28;20536;-78
2022/09/19 01:12:21;;;;;;;0.70;0.63;;;6.90;99.90;;;8.40;79.19;97655.22;5070206;28;20555;-77
2022/09/19 01:15:19;;;;;;;0.80;0.80;;;6.90;99.90;;;7.96;79.74;97636.03;5064669;28;20492;-78
2022/09/19 01:17:49;;;;;;;0.87;0.50;;;6.90;99.90;;;8.11;79.66;97657.34;5067037;28;20457;-78
2022/09/19 01:20:57;;;;;;;0.40;0.40;;;6.90;99.90;;;8.09;80.42;97654.84;5063995;28;20496;-77
2022/09/19 01:23:55;;;;;;;1.70;0.50;;;6.80;99.90;;;8.09;79.80;97644.09;5062477;28;20449;-78
2022/09/19 01:26:41;;;;;;;0.60;0.60;;;6.80;99.90;;;8.14;79.52;97648.84;5052717;28;20459;-77
2022/09/19 01:29:17;;;;;;;1.57;0.70;;;6.70;99.90;;;8.10;79.81;97640.34;5067607;28;20974;-78
2022/09/19 01:31:50;;;;;;;0.87;0.87;;;6.70;99.90;;;7.89;80.65;97653.00;5056399;28;20544;-77
2022/09/19 01:34:24;;;;;;;2.73;1.57;;;6.70;99.90;;;7.78;80.90;97642.84;5060713;28;20960;-77
2022/09/19 01:37:03;;;;;;;0.60;0.57;;;6.60;99.90;;;8.05;80.56;97648.22;5082279;28;20475;-78
2022/09/19 01:39:34;;;;;;;1.30;0.83;;;6.70;99.90;;;8.13;79.71;97645.34;5061399;28;20448;-78
2022/09/19 01:42:02;;;;;;;1.67;0.80;;;6.70;99.90;;;8.01;80.12;97650.50;5064005;28;20518;-77
2022/09/19 01:44:32;;;;;;;2.10;0.97;;;6.80;99.90;;;8.18;79.93;97653.59;5090628;28;20448;-78
2022/09/19 01:47:14;;;;;;;0.70;0.70;;;6.90;99.90;;;8.04;80.36;97663.56;5097158;28;20503;-79
2022/09/19 01:49:51;;;;;;;2.50;0.83;;;6.90;99.90;;;8.18;80.36;97668.91;5064273;28;20509;-78
2022/09/19 01:52:35;;;;;;;2.13;1.10;;;7.00;99.90;;;7.74;79.59;97610.19;5069362;28;20986;-78
2022/09/19 01:55:14;;;;;;;2.60;1.03;;;7.00;99.90;;;8.27;79.03;97672.25;5067346;28;20559;-78
2022/09/19 01:57:52;;;;;;;4.93;1.10;;;7.00;99.90;;;8.65;78.49;97668.88;5070108;28;21103;-79
2022/09/19 02:00:23;;;;;;;1.37;1.13;;;7.10;99.90;;;8.21;78.48;97641.59;5065266;28;20583;-80
2022/09/19 02:03:04;;;;;;;2.83;1.17;;;7.10;99.90;;;8.38;78.54;97668.88;5065746;28;22516;-79
2022/09/19 02:05:41;;;;;;;1.70;1.00;;;7.30;99.90;;;8.31;79.44;97660.00;5061384;28;20460;-79
2022/09/19 02:08:17;;;;;;;2.37;1.20;;;7.20;99.90;;;8.67;78.53;97657.91;5060020;28;20453;-79
2022/09/19 02:10:49;;;;;;;1.30;1.20;;;7.30;99.90;;;8.64;78.20;97667.22;5059978;28;20460;-80
2022/09/19 02:13:20;;;;;;;1.20;1.10;;;7.30;99.90;;;8.48;79.21;97658.53;5064049;28;20456;-80
2022/09/19 02:15:56;;;;;;;3.90;1.13;;;7.30;99.90;;;8.58;79.05;97668.06;5061628;28;20964;-79
2022/09/19 02:18:30;;;;;;;2.30;1.80;;;7.30;99.90;;;8.28;79.80;97653.19;5058639;28;21070;-80
2022/09/19 02:21:04;;;;;;;3.40;1.83;;;7.30;99.90;;;8.32;79.87;97657.09;5064309;28;20483;-80
2022/09/19 02:23:34;;;;;;;2.53;1.37;;;7.20;99.90;;;8.38;79.67;97641.16;5071278;28;20975;-80
2022/09/19 02:26:09;;;;;;;2.00;1.70;;;7.30;99.90;;;8.40;80.00;97647.97;5065238;28;20449;-80
2022/09/19 02:28:41;;;;;;;3.57;1.97;;;7.30;99.90;;;8.52;79.46;97653.59;5074627;28;20505;-80
2022/09/19 02:31:12;;;;;;;2.70;2.10;;;7.30;99.90;;;8.49;79.37;97651.25;5066205;28;20465;-80
2022/09/19 02:33:50;;;;;;;3.40;2.53;;;7.30;99.90;;;8.60;78.20;97644.44;5070333;28;20954;-79
2022/09/19 02:36:26;;;;;;;3.03;2.03;;;7.30;99.90;;;8.72;78.75;97680.47;5069373;28;20452;-80
2022/09/19 02:39:02;;;;;;;1.60;1.50;;;7.40;99.90;;;8.67;78.74;97671.38;5068711;28;20972;-79
2022/09/19 02:41:36;;;;;;;4.27;1.80;;;7.40;99.90;;;8.43;79.62;97671.81;5070367;28;20550;-79
2022/09/19 02:44:19;;;;;;;2.27;1.50;;;7.40;99.90;;;8.51;79.37;97676.16;5066109;28;20477;-76
2022/09/19 02:47:01;;;;;;;2.27;2.07;;;7.40;99.90;;;8.60;78.89;97661.41;5070426;28;20456;-80
2022/09/19 02:49:39;;;;;;;4.50;2.03;;;7.50;99.90;;;8.76;78.47;97665.53;5067849;28;20457;-79
2022/09/19 02:52:14;;;;;;;4.10;2.27;;;7.50;99.90;;;8.81;78.40;97661.34;5069969;28;20514;-77
2022/09/19 02:54:45;;;;;;;4.97;2.50;;;7.50;99.90;;;8.72;78.96;97675.06;5066718;28;20444;-79
2022/09/19 02:57:17;;;;;;;4.80;2.30;;;7.60;99.90;;;8.88;78.61;97678.34;5069895;28;20529;-81
2022/09/19 02:59:48;;;;;;;2.30;2.10;;;7.60;99.90;;;8.39;78.23;97621.28;5069849;28;20462;-80
2022/09/19 03:02:21;;;;;;;4.77;2.43;;;7.60;99.90;;;8.87;78.32;97682.06;5066499;28;20465;-79
2022/09/19 03:04:54;;;;;;;3.50;2.40;;;7.60;99.90;;;8.83;78.16;97675.44;5066985;28;20449;-79
2022/09/19 03:07:27;;;;;;;3.73;2.17;;;7.60;99.90;;;8.85;78.38;97681.44;5068364;28;20545;-80
2022/09/19 03:10:03;;;;;;;3.53;2.47;;;7.70;99.80;;;8.90;78.09;97693.25;5067336;28;20548;-78
2022/09/19 03:12:37;;;;;;;6.03;2.50;;;7.70;99.20;;;8.63;78.91;97689.81;5069882;28;20448;-78
2022/09/19 03:15:07;;;;;;;4.20;2.30;;;7.70;98.60;;;8.82;78.16;97685.41;5069729;28;20459;-78
2022/09/19 03:17:43;;;;;;;3.60;2.87;;;7.70;98.80;;;8.89;78.71;97696.97;5069471;28;20841;-78
2022/09/19 03:20:11;;;;;;;3.30;2.30;;;7.80;98.70;;;9.09;78.05;97696.06;5071377;28;20452;-77
2022/09/19 03:22:40;;;;;;;5.33;2.53;;;7.80;99.80;;;9.06;78.15;97708.13;5061287;28;20461;-77
2022/09/19 03:25:09;;;;;;;3.80;2.80;;;7.80;99.70;;;8.81;78.90;97693.69;5062141;28;20488;-77
2022/09/19 03:27:37;;;;;;;4.87;2.20;;;7.80;98.50;;;8.99;78.64;97701.91;5064250;28;20506;-79
2022/09/19 03:30:08;;;;;;;3.97;2.23;;;7.80;99.20;;;9.00;79.04;97702.75;5063561;28;21083;-78
2022/09/19 03:32:37;;;;;;;5.40;2.80;;;7.80;98.80;;;9.05;78.80;97703.78;5068073;28;20578;-77
2022/09/19 03:35:05;;;;;;;3.30;2.60;;;7.80;99.30;;;9.04;78.31;97702.13;5067837;28;20445;-78
2022/09/19 03:37:33;;;;;;;2.50;2.30;;;7.80;99.70;;;8.94;78.97;97717.91;5069923;28;20473;-78
2022/09/19 03:40:01;;;;;;;4.60;2.67;;;7.80;99.80;;;9.11;78.47;97703.94;5061682;28;20468;-79
2022/09/19 03:42:31;;;;;;;5.63;2.10;;;7.80;99.90;;;9.13;78.60;97694.63;5065772;28;20872;-79
2022/09/19 03:44:59;;;;;;;3.13;2.60;;;7.80;99.80;;;8.84;78.74;97715.66;5065316;28;20480;-78
2022/09/19 03:47:26;;;;;;;3.03;2.73;;;7.80;99.60;;;9.06;78.76;97713.50;5062864;28;20543;-79
2022/09/19 03:49:55;;;;;;;4.90;2.10;;;7.80;99.90;;;9.02;78.70;97706.91;5064401;28;20472;-78
2022/09/19 03:52:22;;;;;;;2.70;2.50;;;7.80;99.90;;;8.52;78.27;97636.59;5071262;28;20477;-78
2022/09/19 03:54:49;;;;;;;5.03;2.73;;;7.80;99.90;;;9.06;79.21;97720.75;5059335;28;20512;-78
2022/09/19 03:57:16;;;;;;;2.50;2.27;;;7.80;99.90;;;9.14;78.73;97719.69;5062003;28;20476;-78
2022/09/19 03:59:45;;;;;;;3.90;2.57;;;7.90;99.90;;;9.03;78.50;97730.09;5072746;28;20502;-78
2022/09/19 04:02:13;;;;;;;5.70;2.90;;;7.90;99.90;;;9.06;78.38;97735.06;5071880;28;20465;-78
2022/09/19 04:04:40;;;;;;;2.43;2.27;;;7.90;99.90;;;9.04;78.48;97730.91;5066412;28;20481;-78
2022/09/19 04:07:09;;;;;;;4.40;2.67;;;7.90;99.50;;;9.10;78.26;97729.25;5059554;28;20465;-79
2022/09/19 04:09:36;;;;;;;3.90;2.67;;;8.00;99.60;;;9.21;78.22;97736.66;5071085;28;20570;-79
2022/09/19 04:12:04;;;;;;;5.23;3.07;;;8.10;98.70;;;8.71;78.73;97676.09;5040571;28;20454;-78
2022/09/19 04:14:31;;;;;;;5.73;2.90;;;8.10;98.10;;;9.20;77.85;97743.09;5066379;28;20461;-79
2022/09/19 04:16:59;;;;;;;4.27;2.60;;;8.10;98.40;;;9.23;78.30;97745.38;5075418;28;21060;-79
2022/09/19 04:19:29;;;;;;;4.70;3.77;;;8.10;98.10;;;9.27;77.97;97745.78;5068577;28;20548;-79
2022/09/19 04:22:01;;;;;;;5.67;3.37;;;8.10;98.00;;;9.26;78.33;97744.94;5096445;28;20557;-78
2022/09/19 04:24:30;;;;;;;5.67;3.73;;;8.10;98.00;;;9.45;77.01;97739.66;5075282;28;20535;-79
2022/09/19 04:26:59;;;;;;;4.03;3.17;;;8.10;98.10;;;9.37;77.28;97751.53;5068455;28;21027;-78
2022/09/19 04:29:27;;;;;;;5.47;2.93;;;8.20;97.50;;;9.46;76.72;97754.81;5078378;28;20797;-79
2022/09/19 04:31:54;;;;;;;3.40;3.07;;;8.20;97.90;;;9.25;77.38;97754.06;5064995;28;20509;-77
2022/09/19 04:34:22;;;;;;;3.87;3.27;;;8.20;97.80;;;8.91;78.22;97702.16;5064169;28;20460;-77
2022/09/19 04:36:50;;;;;;;4.00;3.20;;;8.10;99.10;;;9.28;78.87;97769.81;5070293;28;20452;-79
2022/09/19 04:39:18;;;;;;;3.20;2.90;;;8.10;98.80;;;9.27;78.96;97765.47;5064825;28;20468;-79
2022/09/19 04:41:48;;;;;;;8.00;3.60;;;8.10;99.10;;;9.37;78.75;97764.19;5069284;28;20516;-78
2022/09/19 04:44:15;;;;;;;4.73;3.30;;;8.10;99.90;;;9.27;78.56;97765.47;5071602;28;20979;-79
2022/09/19 04:46:43;;;;;;;4.63;3.53;;;8.10;99.40;;;9.62;77.50;97770.47;5057260;28;20594;-78
2022/09/19 04:49:13;;;;;;;4.30;3.03;;;8.10;99.90;;;9.24;77.76;97746.19;5068697;28;20477;-77
2022/09/19 04:51:40;;;;;;;4.10;3.27;;;8.20;99.50;;;9.50;78.02;97772.22;5061680;28;20462;-78
2022/09/19 04:54:07;;;;;;;5.90;3.50;;;8.20;98.70;;;9.24;78.10;97779.38;5063834;28;20449;-79
2022/09/19 04:56:34;;;;;;;4.50;3.53;;;8.20;98.00;;;9.64;77.71;97792.69;5068012;28;20804;-77
2022/09/19 04:59:03;;;;;;;4.90;4.00;;;8.20;98.70;;;9.83;77.46;97789.25;5066715;28;20534;-78
2022/09/19 05:01:31;;;;;;;4.50;3.53;;;8.30;99.10;;;9.65;76.80;97780.03;5067208;28;20469;-76
2022/09/19 05:03:58;;;;;;;5.83;3.40;;;8.30;97.60;;;9.33;77.65;97783.50;5066951;28;20472;-80
2022/09/19 05:06:27;;;;;;;4.80;3.70;;;8.30;97.10;;;9.53;77.43;97787.13;5074514;28;20488;-77
2022/09/19 05:08:54;;;;;;;7.37;3.17;;;8.30;97.90;;;9.67;76.11;97793.31;5058362;28;20459;-79
2022/09/19 05:11:21;;;;;;;6.70;3.90;;;8.40;97.90;;;9.85;76.88;97795.28;5061765;28;20969;-78
2022/09/19 05:13:51;;;;;;;4.40;3.33;;;8.40;97.70;;;9.63;76.69;97803.69;5060279;28;20464;-78
2022/09/19 05:16:20;;;;;;;3.13;2.83;;;8.50;96.30;;;9.73;77.11;97804.06;5061554;28;20534;-73
2022/09/19 05:18:49;;;;;;;6.63;4.43;;;8.50;96.50;;;9.66;77.05;97808.66;5053768;28;20469;-78
2022/09/19 05:21:17;;;;;;;8.80;3.60;;;8.50;96.40;;;9.72;77.96;97823.16;5060525;28;20906;-78
2022/09/19 05:23:44;;;;;;;6.60;3.60;;;8.50;96.60;;;9.80;76.68;97814.00;5059447;28;20549;-79
2022/09/19 05:26:15;;;;;;;6.13;3.87;;;8.50;96.70;;;9.58;77.29;97828.59;5053150;28;20488;-77
2022/09/19 05:28:44;;;;;;;4.70;3.50;;;8.60;95.70;;;9.60;77.18;97826.53;5062380;28;20481;-79
2022/09/19 05:31:12;;;;;;;4.67;3.93;;;8.50;96.10;;;9.62;77.31;97829.81;5070756;28;20518;-78
2022/09/19 05:33:41;;;;;;;5.87;4.20;;;8.60;96.20;;;9.76;76.63;97824.38;5055574;28;20450;-79
2022/09/19 05:36:08;;;;;;;10.83;4.10;;;8.60;96.50;;;9.88;76.24;97843.44;5053333;28;20462;-79
2022/09/19 05:38:36;;;;;;;5.30;3.47;;;8.60;96.00;;;10.05;75.75;97838.34;5054385;28;20865;-78
2022/09/19 05:41:05;;;;;;;11.03;3.97;;;8.70;95.90;;;9.98;75.93;97848.38;5062812;28;20473;-76
2022/09/19 05:43:32;;;;;;;5.73;3.53;;;8.70;95.00;;;9.98;75.77;97848.38;5054284;28;20477;-76
2022/09/19 05:46:01;;;;;;;4.10;3.67;;;8.80;94.80;;;9.93;76.19;97851.69;5050674;28;20454;-77
2022/09/19 05:48:29;;;;;;;3.47;3.17;;;8.80;94.70;;;9.95;75.22;97846.09;5059092;28;20472;-77
2022/09/19 05:50:58;;;;;;;6.20;3.50;;;8.80;94.50;;;10.07;75.68;97849.75;5050385;28;20560;-76
2022/09/19 05:56:10;;;;;;;5.67;3.60;;;8.90;94.60;;;9.98;75.69;97867.25;5082186;28;20449;-75
2022/09/19 05:58:38;;;;;;;5.50;3.90;;;8.90;94.00;;;10.27;75.24;97855.03;5059091;28;21203;-77
2022/09/19 06:01:06;;;;;;;5.60;3.60;;;9.00;94.70;;;10.30;75.51;97861.88;5030866;28;20477;-76
2022/09/19 06:03:34;;;;;;;7.97;3.70;;;9.00;94.50;;;10.17;75.71;97870.91;5048786;28;20457;-76
2022/09/19 06:06:11;;;;;;;5.57;4.43;;;9.00;94.20;;;9.99;76.42;97860.81;5088479;28;20579;-77
2022/09/19 06:08:39;;;;;;;5.73;3.80;;;9.00;94.50;;;9.98;75.99;97859.16;5057865;28;20623;-76
2022/09/19 06:11:07;;;;;;;5.77;3.53;;;9.00;95.20;;;10.18;75.68;97873.38;5054649;28;20551;-77
2022/09/19 06:16:20;;;;;;;8.47;4.80;;;9.00;95.00;;;10.35;75.82;97883.66;5085145;28;20440;-77
2022/09/19 06:18:47;;;;;;;7.43;3.93;;;9.10;95.60;;;9.99;76.06;97850.00;5056344;28;20549;-77
2022/09/19 06:21:16;;;;;;;10.60;4.40;;;9.10;94.50;;;10.39;74.79;97890.28;5094147;28;20478;-76
2022/09/19 06:23:44;;;;;;;6.10;4.30;;;9.10;94.40;;;10.42;75.62;97881.78;5068708;28;20941;-76
2022/09/19 06:26:12;;;;;;;6.67;4.67;;;9.10;94.60;;;10.51;75.52;97889.59;5066748;28;20466;-77
2022/09/19 06:28:39;;;;;;;8.93;4.37;;;9.20;94.10;;;10.56;74.55;97892.50;5062686;28;21068;-76
2022/09/19 06:31:08;;;;;;;4.80;3.63;;;9.30;93.40;;;10.47;74.92;97890.03;5055688;28;21817;-76
2022/09/19 06:33:38;;;;;;;4.70;3.60;;;9.40;93.00;;;10.44;74.92;97895.91;5061470;28;20484;-75
2022/09/19 06:36:06;;;;;;;4.03;3.57;;;9.30;93.50;;;10.58;74.87;97901.22;5055955;28;20460;-76
2022/09/19 06:38:35;;;;;;;6.13;4.17;;;9.30;93.90;;;10.61;75.00;97900.78;5064206;28;20969;-75
2022/09/19 06:41:02;;;;;;;5.60;4.90;;;9.30;93.90;;;10.65;74.41;97912.78;5065127;28;20564;-76
2022/09/19 06:43:30;;;;;;;5.70;4.10;;;9.40;93.60;;;10.64;74.38;97921.94;5055220;28;20536;-77
2022/09/19 06:45:58;;;;;;;4.90;3.37;;;9.40;93.30;;;10.72;74.37;97923.56;5064659;28;20464;-77
2022/09/19 06:48:26;;;;;;;6.10;4.67;;;9.40;93.20;;;10.68;74.34;97912.34;5063899;28;20522;-77
2022/09/19 06:50:53;;;;;;;7.37;4.17;;;9.50;93.00;;;10.94;73.06;97925.91;5064440;28;20561;-75
2022/09/19 06:53:20;;;;;;;10.57;4.30;;;9.60;92.90;;;10.67;73.70;97916.09;5054284;28;20520;-77
2022/09/19 06:55:49;;;;;;;5.60;4.20;;;9.60;92.80;;;10.97;73.90;97939.78;5049586;28;20452;-77
2022/09/19 06:58:16;;;;;;;6.30;3.83;;;9.60;92.60;;;11.13;73.58;97941.13;5058388;28;20467;-77
2022/09/19 07:00:44;;;;;;;5.23;3.73;;;9.70;92.30;;;11.15;73.21;97943.63;5054079;28;20470;-77
2022/09/19 07:03:15;;;;;;;7.10;4.00;;;9.80;92.10;;;11.15;73.33;97954.44;5059421;28;20582;-75
2022/09/19 07:05:44;;;;;;;5.73;3.70;;;9.80;92.20;;;11.50;72.55;97951.19;5057733;28;20825;-75
2022/09/19 07:08:13;;;;;;;8.07;4.63;;;9.90;92.90;;;11.02;73.57;97956.19;5056205;28;20467;-77
2022/09/19 07:10:41;;;;;;;8.50;3.90;;;9.80;92.30;;;11.42;72.68;97956.88;5063066;28;20468;-78
2022/09/19 07:13:13;;;;;;;6.87;4.53;;;9.90;92.90;;;11.18;74.13;97965.63;5068274;28;21199;-78
2022/09/19 07:15:41;;;;;;;5.63;4.10;;;9.90;93.40;;;11.20;74.67;97968.13;5072644;28;20460;-77
2022/09/19 07:18:10;;;;;;;6.77;4.70;;;9.80;94.40;;;10.99;74.75;97983.63;5062943;28;20934;-75
2022/09/19 07:20:38;;;;;;;5.20;4.20;;;9.80;93.30;;;10.83;74.93;97967.97;5060223;28;20457;-76
2022/09/19 07:23:13;;;;;;;9.27;4.20;;;9.70;93.70;;;10.91;75.72;97973.09;5059816;28;20473;-77
2022/09/19 07:25:40;;;;;;;8.33;5.00;;;9.80;95.20;;;11.05;75.09;97981.94;5091955;28;20547;-76
2022/09/19 07:28:13;;;;;;;7.40;4.17;;;9.80;95.10;;;11.08;75.52;97977.97;5058955;28;20544;-74
2022/09/19 07:30:43;;;;;;;8.30;5.10;;;9.80;94.30;;;10.79;75.70;97977.56;5057163;28;20480;-76
2022/09/19 07:33:12;;;;;;;8.80;5.37;;;9.70;95.60;;;10.97;76.11;97990.34;5056491;28;20450;-76
2022/09/19 07:35:41;;;;;;;5.80;4.27;;;9.60;96.00;;;10.79;75.62;97996.47;5058710;28;20459;-77
2022/09/19 07:38:12;;;;;;;6.00;4.67;;;9.60;94.80;;;11.04;74.76;98004.63;5057793;28;20475;-76
2022/09/19 07:40:39;;;;;;;6.83;4.17;;;9.70;95.00;;;10.97;74.93;98003.84;5066146;28;20453;-76
2022/09/19 07:43:08;;;;;;;9.83;4.67;;;9.70;94.60;;;11.04;74.99;98008.16;5056356;28;20552;-74
2022/09/19 07:45:37;;;;;;;6.53;4.47;;;9.70;94.80;;;11.17;74.88;98018.03;5053715;28;20571;-77
2022/09/19 07:48:06;;;;;;;4.27;3.87;;;9.80;94.80;;;11.20;74.42;98011.38;5063810;28;20458;-77
2022/09/19 07:50:34;;;;;;;7.47;4.30;;;9.80;93.90;;;11.20;73.96;98023.00;5059469;28;20508;-76
2022/09/19 07:53:05;;;;;;;4.57;4.13;;;9.90;93.70;;;11.11;74.22;98018.09;5052233;28;20457;-76
2022/09/19 07:55:33;;;;;;;6.73;3.97;;;9.90;93.20;;;11.27;73.77;98022.97;5058173;28;20537;-76
2022/09/19 07:58:03;;;;;;;6.77;4.33;;;9.90;93.30;;;11.41;73.57;98025.56;5063845;28;20801;-78
2022/09/19 08:00:33;;;;;;;6.97;4.73;;;10.00;92.40;;;11.73;72.54;98026.34;5059759;28;20464;-78
2022/09/19 08:03:05;;;;;;;8.50;4.40;;;10.10;92.50;;;11.68;72.30;98030.75;5053444;28;20481;-75
2022/09/19 08:05:36;;;;;;;11.00;4.50;;;10.20;91.50;;;11.93;71.75;98036.13;5062187;28;20464;-76
2022/09/19 08:08:03;;;;;;;4.93;3.50;;;10.40;91.70;;;11.73;72.00;98039.03;5058177;28;20448;-77
2022/09/19 08:10:32;;;;;;;6.87;4.30;;;10.50;90.70;;;12.02;71.28;98039.41;5053455;28;20460;-78
2022/09/19 08:13:00;;;;;;;9.00;4.67;;;10.60;90.60;;;12.27;70.60;98043.94;5059818;28;20888;-79
2022/09/19 08:15:28;;;;;;;8.33;4.13;;;10.80;89.80;;;12.37;70.06;98036.13;5054531;28;20469;-76
2022/09/19 08:18:01;;;;;;;6.30;4.30;;;10.90;89.30;;;12.39;68.85;98042.13;5056298;28;20522;-77
2022/09/19 08:20:30;;;;;;;10.70;3.53;;;11.10;87.10;;;12.42;69.20;98035.41;5058607;28;20470;-77
2022/09/19 08:22:58;;;;;;;4.87;3.37;;;11.10;87.30;;;12.71;68.55;98055.50;5056029;28;20481;-80
2022/09/19 08:25:28;;;;;;;4.83;3.30;;;11.20;87.20;;;12.70;67.52;98047.56;5072399;28;20628;-77
2022/09/19 08:27:56;;;;;;;5.07;3.43;;;11.30;85.30;;;12.51;67.78;98046.75;5058619;28;20499;-77
2022/09/19 08:30:24;;;;;;;9.60;3.47;;;11.30;85.00;;;12.97;67.25;98050.78;5048307;28;20987;-78
2022/09/19 08:32:51;;;;;;;8.30;3.43;;;11.40;85.50;;;12.87;66.45;98066.75;5055258;28;22044;-76
2022/09/19 08:35:21;;;;;;;7.57;3.10;;;11.60;84.40;;;12.57;67.58;98065.66;5055732;28;20496;-78
2022/09/19 08:37:54;;;;;;;5.60;3.33;;;11.40;84.60;;;12.93;66.76;98036.00;5054196;28;21255;-77
2022/09/19 08:40:27;;;;;;;7.80;3.70;;;11.50;85.00;;;13.00;66.34;98011.50;5056378;28;20577;-78
2022/09/19 08:43:05;;;;;;;6.27;3.27;;;11.70;85.10;;;13.07;65.91;98060.22;5055084;28;20847;-76
2022/09/19 08:45:53;;;;;;;5.60;2.90;;;11.80;83.90;;;12.96;65.45;98075.41;5055437;28;20467;-78
2022/09/19 08:48:25;;;;;;;5.60;3.00;;;11.70;82.80;;;13.36;64.84;98063.13;5084002;28;20963;-78
2022/09/19 08:51:03;;;;;;;5.10;2.40;;;12.00;83.00;;;13.41;64.02;98068.69;5057314;28;20465;-78
2022/09/19 08:53:34;;;;;;;7.07;2.97;;;12.20;81.90;;;13.51;63.86;98070.88;5055014;28;21290;-78
2022/09/19 08:56:02;;;;;;;4.13;2.70;;;12.20;81.80;;;13.67;63.12;98085.66;5052519;28;20462;-77
2022/09/19 08:58:34;;;;;;;3.90;2.57;;;12.40;81.20;;;13.44;63.43;98065.56;5058834;28;21003;-77
2022/09/19 09:01:05;;;;;;;4.63;3.00;;;12.30;81.10;;;14.02;62.69;98080.25;5056459;28;21131;-76
2022/09/19 09:03:39;;;;;;;3.60;2.53;;;12.50;81.50;;;14.44;60.46;98084.69;5051626;28;20483;-77
2022/09/19 09:06:22;;;;;;;3.00;2.00;;;12.90;80.30;;;14.00;61.23;98081.53;5052221;28;20465;-80
2022/09/19 09:09:07;;;;;;;3.10;2.57;;;12.80;79.10;;;14.16;60.55;98086.25;5049091;28;20534;-77
2022/09/19 09:11:49;;;;;;;4.10;2.40;;;12.70;79.50;;;14.35;60.80;98091.56;5059698;28;20478;-79
2022/09/19 09:14:30;;;;;;;3.77;2.70;;;12.90;79.90;;;14.08;60.84;98097.50;5072511;28;20526;-79
2022/09/19 09:17:13;;;;;;;3.40;2.90;;;12.90;79.10;;;14.08;61.15;98100.22;5065159;28;20523;-77
2022/09/19 09:20:01;;;;;;;2.53;2.33;;;12.80;79.40;;;14.50;59.93;98103.84;5065162;28;20476;-76
2022/09/19 09:22:33;;;;;;;6.17;2.97;;;13.00;79.30;;;14.71;60.12;98097.78;5054595;28;20508;-75
2022/09/19 09:25:10;;;;;;;8.63;3.00;;;13.00;79.40;;;14.85;59.46;98111.13;5047152;28;20543;-76
2022/09/19 09:27:53;;;;;;;7.17;2.97;;;13.20;79.10;;;14.66;59.23;98111.25;5060241;28;20461;-77
2022/09/19 09:30:21;;;;;;;4.63;2.23;;;13.30;78.60;;;14.94;58.02;98115.13;5060347;28;20466;-76
2022/09/19 09:32:54;;;;;;;3.20;2.40;;;13.40;77.90;;;15.25;58.27;98110.28;5052308;28;20497;-80
2022/09/19 09:35:32;;;;;;;5.23;3.03;;;13.50;78.30;;;15.11;58.00;98112.44;5051416;28;20467;-76
2022/09/19 09:38:08;;;;;;;2.60;2.30;;;13.60;78.10;;;14.73;58.48;98120.13;5052875;28;21102;-76
2022/09/19 09:43:44;;;;;;;4.50;2.37;;;13.50;78.20;;;14.61;59.19;98126.63;5051813;28;20619;-75
2022/09/19 09:46:18;;;;;;;5.93;3.40;;;13.20;77.70;;;14.61;59.75;98113.84;5050856;28;20463;-79
2022/09/19 09:48:45;;;;;;;6.73;3.30;;;13.10;78.40;;;14.82;58.95;98126.00;5050260;28;20508;-72
2022/09/19 09:51:29;;;;;;;2.83;2.60;;;13.30;78.20;;;14.67;58.78;98126.50;5056994;28;20954;-77
2022/09/19 09:57:13;;;;;;;2.57;2.37;;;13.10;77.80;;;15.11;58.36;98123.31;5053722;28;20510;-75
2022/09/19 10:05:37;;;;;;;3.40;2.00;;;13.50;77.10;;;14.81;58.03;98134.44;5099285;28;20452;-77
2022/09/19 10:08:18;;;;;;;3.37;2.60;;;13.40;76.90;;;14.77;57.96;98138.69;5069141;28;21155;-76
2022/09/19 10:10:47;;;;;;;8.40;2.60;;;13.40;76.70;;;14.80;58.00;98139.03;5094190;28;21119;-76
2022/09/19 10:13:26;;;;;;;5.10;2.53;;;13.30;77.20;;;14.92;57.44;98138.19;5064533;28;20557;-75
2022/09/19 10:16:02;;;;;;;3.20;2.30;;;13.40;76.40;;;15.01;57.35;98134.00;5051264;28;20478;-75
2022/09/19 10:18:42;;;;;;;4.90;2.03;;;13.50;76.60;;;15.02;56.66;98136.50;5046839;28;20570;-77
2022/09/19 10:21:10;;;;;;;4.87;2.70;;;13.70;76.10;;;15.13;57.22;98134.78;5052227;28;20457;-77
2022/09/19 10:23:38;;;;;;;6.87;2.37;;;13.70;76.30;;;15.48;56.37;98132.19;5058145;28;20508;-77
2022/09/19 10:26:14;;;;;;;3.23;2.30;;;13.90;76.20;;;15.34;56.44;98128.91;5051382;28;20889;-76
2022/09/19 10:28:49;;;;;;;3.73;2.40;;;13.90;75.70;;;16.05;55.75;98125.81;5054722;28;20474;-74
2022/09/19 10:31:24;;;;;;;3.80;2.33;;;14.20;76.30;;;16.43;54.90;98129.63;5050193;28;20473;-76
2022/09/19 10:33:52;;;;;;;4.20;1.97;;;14.50;76.10;;;16.33;53.86;98129.50;5055579;28;20572;-75
2022/09/19 10:36:25;;;;;;;5.73;2.43;;;14.80;74.60;;;15.70;54.63;98130.38;5060227;28;20474;-75
2022/09/19 10:38:58;;;;;;;3.30;2.23;;;14.40;74.70;;;15.61;56.63;98129.13;5050793;28;20924;-74
2022/09/19 10:41:30;;;;;;;3.60;2.20;;;14.10;75.90;;;16.23;55.12;98129.31;5053984;28;20474;-77
2022/09/19 10:44:00;;;;;;;4.00;2.00;;;14.30;76.10;;;16.22;55.27;98133.13;5054744;28;20488;-75
2022/09/19 10:46:35;;;;;;;3.03;2.07;;;14.50;75.90;;;16.27;55.33;98130.47;5053721;28;20466;-75
2022/09/19 10:49:07;;;;;;;4.83;2.20;;;14.50;75.80;;;15.72;56.27;98135.59;5056852;28;20461;-74
2022/09/19 10:51:43;;;;;;;5.57;2.30;;;14.30;75.80;;;15.62;57.52;98128.06;5054646;28;20516;-79
2022/09/19 10:54:22;;;;;;;6.73;2.00;;;14.10;76.60;;;15.63;57.18;98135.16;5050992;28;20460;-76
2022/09/19 10:56:51;;;;;;;5.88;2.75;;;14.30;76.40;;;16.40;56.06;98135.56;5052417;28;20558;-75
2022/09/19 10:59:28;;;;;;;8.70;3.20;;;14.50;76.70;;;16.55;55.71;98143.16;5069969;28;20210;-78
2022/09/19 11:02:19;;;;;;;5.37;2.73;;;14.90;76.20;;;16.08;55.27;98149.81;5057326;28;20484;-75
2022/09/19 11:04:55;;;;;;;4.40;2.00;;;14.80;75.50;;;15.65;56.73;98141.19;5047962;28;20463;-76
2022/09/19 11:07:28;;;;;;;2.87;2.40;;;14.40;75.30;;;15.83;57.13;98147.47;5055918;28;20544;-75